createdAt,value
2023-05-03T00:08:35.901Z,183.27
2023-05-03T00:18:37.311Z,197.45
2023-05-03T00:28:38.834Z,210.70
2023-05-03T00:38:40.491Z,202.32
2023-05-03T00:48:42.022Z,219.85
2023-05-03T00:58:43.565Z,222.55
2023-05-03T01:08:49.340Z,255.70
2023-05-03T01:18:51.653Z,253.75
2023-05-03T01:28:53.250Z,232.93
2023-05-03T01:38:54.637Z,242.75
2023-05-03T01:48:56.153Z,262.95
2023-05-03T01:58:57.683Z,251.98
2023-05-03T02:08:59.103Z,302.75
2023-05-03T02:19:00.660Z,306.17
2023-05-03T02:29:02.138Z,336.80
2023-05-03T02:39:03.585Z,338.98
2023-05-03T02:49:04.961Z,294.52
2023-05-03T02:59:06.365Z,167.82
2023-05-03T03:09:07.852Z,255.25
2023-05-03T03:19:09.496Z,219.75
2023-05-03T03:29:10.929Z,291.42
2023-05-03T03:39:12.339Z,194.35
2023-05-03T03:49:13.709Z,276.90
2023-05-03T03:59:15.449Z,278.73
2023-05-03T04:09:17.539Z,365.95
2023-05-03T04:19:19.240Z,163.88
2023-05-03T04:29:20.788Z,168.48
2023-05-03T04:39:22.888Z,382.90
2023-05-03T04:49:24.255Z,368.20
2023-05-03T04:59:25.836Z,392.15
2023-05-03T05:09:28.377Z,408.48
2023-05-03T05:19:29.909Z,369.33
2023-05-03T05:29:31.294Z,398.30
2023-05-03T05:39:32.821Z,419.35
2023-05-03T05:49:34.239Z,532.58
2023-05-03T05:59:35.764Z,358.05
2023-05-03T06:09:37.426Z,267.50
2023-05-03T06:19:39.169Z,239.35
2023-05-03T06:29:40.730Z,204.63
2023-05-03T06:39:42.114Z,182.15
2023-05-03T06:49:43.658Z,164.55
2023-05-03T06:59:45.203Z,167.05
2023-05-03T07:09:46.775Z,115.10
2023-05-03T07:19:49.438Z,123.28
2023-05-03T07:29:50.833Z,163.52
2023-05-03T07:39:52.432Z,152.25
2023-05-03T07:49:54.161Z,151.10
2023-05-03T07:59:55.578Z,156.30
2023-05-03T08:09:58.451Z,127.30
2023-05-03T08:19:59.905Z,123.03
2023-05-03T08:30:01.632Z,102.28
2023-05-03T08:40:05.523Z,151.50
2023-05-03T08:50:09.145Z,129.48
2023-05-03T09:00:11.107Z,140.57
2023-05-03T09:10:24.732Z,151.32
2023-05-03T09:20:36.686Z,153.88
2023-05-03T09:30:38.489Z,160.90
2023-05-03T09:40:46.496Z,174.02
2023-05-03T09:50:47.911Z,187.02
2023-05-03T10:00:52.234Z,192.40
2023-05-03T10:10:54.394Z,219.07
2023-05-03T10:21:08.572Z,218.30
2023-05-03T10:31:46.312Z,182.77
2023-05-03T10:42:03.189Z,186.48
2023-05-03T10:52:33.637Z,190.38
2023-05-03T11:02:37.495Z,172.68
2023-05-03T11:12:38.908Z,165.15
2023-05-03T11:22:40.281Z,155.63
2023-05-03T11:32:42.676Z,166.75
2023-05-03T11:42:54.133Z,157.52
2023-05-03T11:52:56.033Z,164.73
2023-05-03T12:02:58.677Z,150.98
2023-05-03T12:13:01.156Z,152.50
2023-05-03T12:23:05.448Z,164.70
2023-05-03T12:33:09.580Z,167.38
2023-05-03T12:43:11.697Z,160.10
2023-05-03T12:53:16.878Z,154.60
2023-05-03T13:03:21.853Z,161.55
2023-05-03T13:13:26.115Z,175.25
2023-05-03T13:23:27.720Z,189.30
2023-05-03T13:33:29.381Z,157.80
2023-05-03T13:43:30.912Z,169.73
2023-05-03T13:53:32.326Z,163.90
2023-05-03T14:03:34.076Z,146.75
2023-05-03T14:13:53.982Z,156.20
2023-05-03T14:23:57.475Z,194.85
2023-05-03T14:33:59.875Z,182.68
2023-05-03T14:44:02.244Z,156.18
2023-05-03T14:54:04.076Z,197.27
2023-05-03T15:04:07.726Z,178.18
2023-05-03T15:14:09.977Z,187.48
2023-05-03T15:24:11.437Z,169.43
2023-05-03T15:34:12.833Z,172.43
2023-05-03T15:44:14.899Z,191.98
2023-05-03T15:54:16.339Z,155.63
2023-05-03T16:04:17.732Z,164.27
2023-05-03T16:14:19.168Z,159.50
2023-05-03T16:24:21.345Z,165.35
2023-05-03T16:34:22.727Z,182.82
2023-05-03T16:44:24.861Z,162.32
2023-05-03T16:54:26.562Z,163.30
2023-05-03T17:04:28.128Z,169.68
2023-05-03T17:14:29.519Z,168.43
2023-05-03T17:24:31.248Z,163.55
2023-05-03T17:34:32.648Z,165.73
2023-05-03T17:44:34.375Z,169.95
2023-05-03T17:54:35.987Z,225.27
2023-05-03T18:04:37.392Z,261.63
2023-05-03T18:14:38.793Z,204.35
2023-05-03T18:24:40.207Z,229.70
2023-05-03T18:34:41.732Z,247.40
2023-05-03T18:44:43.369Z,234.02
2023-05-03T18:54:44.895Z,174.43
2023-05-03T19:04:46.412Z,201.85
2023-05-03T19:14:47.882Z,186.63
2023-05-03T19:24:49.272Z,227.38
2023-05-03T19:34:51.338Z,222.13
2023-05-03T19:44:52.733Z,177.93
2023-05-03T19:54:55.134Z,181.70
2023-05-03T20:04:56.670Z,182.63
2023-05-03T20:14:58.076Z,177.98
2023-05-03T20:24:59.481Z,194.70
2023-05-03T20:35:01.028Z,169.75
2023-05-03T20:45:02.537Z,200.65
2023-05-03T20:55:04.013Z,200.57
2023-05-03T21:05:05.587Z,170.30
2023-05-03T21:15:07.580Z,161.35
2023-05-03T21:25:09.308Z,172.82
2023-05-03T21:35:10.881Z,182.02
2023-05-03T21:45:12.463Z,214.05
2023-05-03T21:55:13.867Z,193.45
2023-05-03T22:05:15.479Z,187.80
2023-05-03T22:15:17.031Z,169.95
2023-05-03T22:25:25.401Z,179.77
2023-05-03T22:35:26.957Z,196.57
2023-05-03T22:45:28.740Z,182.80
2023-05-03T22:55:30.294Z,202.52
2023-05-03T23:05:32.805Z,171.75
2023-05-03T23:15:34.838Z,169.55
2023-05-03T23:25:36.224Z,178.02
2023-05-03T23:35:37.770Z,173.68
2023-05-03T23:45:39.380Z,197.85
2023-05-03T23:55:41.290Z,181.20
